Time;durP1;ratioP1;P1;durP2;ratioP2;P2;SDS_P1;SDS_P2;PMS_P1;PMS_P2;Temp;Humidity;BMP_temperature;BMP_pressure;BME280_temperature;BME280_humidity;BME280_pressure;Samples;Min_cycle;Max_cycle;Signal;HPM_P1;HPM_P2
2021/01/02 00:00:52;;;;;;;31.63;18.23;;;;;;;;;;5036701;28;20028;-79
2021/01/02 00:03:50;;;;;;;32.50;18.27;;;;;;;;;;5036674;28;20109;-79
2021/01/02 00:06:25;;;;;;;32.33;18.10;;;;;;;;;;5054780;28;20045;-79
2021/01/02 00:08:53;;;;;;;36.15;19.63;;;;;;;;;;5038134;28;20127;-78
2021/01/02 00:11:19;;;;;;;36.90;19.55;;;;;;;;;;5054849;28;20079;-79
2021/01/02 00:13:48;;;;;;;38.50;20.02;;;;;;;;;;5054804;28;20032;-79
2021/01/02 00:16:17;;;;;;;35.92;19.60;;;;;;;;;;5054626;28;20039;-79
2021/01/02 00:18:46;;;;;;;33.30;17.60;;;;;;;;;;5054774;28;20025;-79
2021/01/02 00:21:16;;;;;;;30.83;18.30;;;;;;;;;;5054963;28;20021;-79
2021/01/02 00:23:42;;;;;;;32.03;18.45;;;;;;;;;;5055502;28;20370;-81
2021/01/02 00:26:26;;;;;;;32.75;18.50;;;;;;;;;;5023468;28;20107;-82
2021/01/02 00:28:53;;;;;;;30.27;17.75;;;;;;;;;;5053514;28;20390;-82
2021/01/02 00:31:37;;;;;;;34.28;20.02;;;;;;;;;;5037806;28;20423;-82
2021/01/02 00:34:15;;;;;;;36.40;18.80;;;;;;;;;;5054580;28;20040;-80
2021/01/02 00:36:55;;;;;;;33.25;18.52;;;;;;;;;;5037980;28;20029;-81
2021/01/02 00:39:48;;;;;;;31.30;18.88;;;;;;;;;;5054547;28;20017;-81
2021/01/02 00:42:14;;;;;;;30.30;17.30;;;;;;;;;;5048268;28;20117;-82
2021/01/02 00:44:42;;;;;;;29.35;18.05;;;;;;;;;;5036678;28;20026;-82
2021/01/02 00:47:11;;;;;;;31.48;18.42;;;;;;;;;;5036920;28;20056;-82
2021/01/02 00:49:38;;;;;;;31.65;18.17;;;;;;;;;;5040533;28;20105;-83
2021/01/02 00:52:27;;;;;;;30.38;18.48;;;;;;;;;;5040439;28;20127;-81
2021/01/02 00:55:07;;;;;;;30.77;19.05;;;;;;;;;;5038229;28;20041;-79
2021/01/02 00:57:41;;;;;;;34.47;19.35;;;;;;;;;;5038035;28;20037;-80
2021/01/02 01:00:08;;;;;;;32.97;18.33;;;;;;;;;;5038190;28;20037;-81
2021/01/02 01:02:47;;;;;;;26.52;17.20;;;;;;;;;;5038308;28;20029;-83
2021/01/02 01:05:41;;;;;;;31.85;18.40;;;;;;;;;;5021329;28;20042;-83
2021/01/02 01:08:07;;;;;;;34.50;19.25;;;;;;;;;;5038015;28;20057;-83
2021/01/02 01:10:34;;;;;;;35.92;20.15;;;;;;;;;;5021066;28;20379;-82
2021/01/02 01:13:03;;;;;;;32.05;19.48;;;;;;;;;;5038031;28;20068;-82
2021/01/02 01:15:30;;;;;;;35.50;20.15;;;;;;;;;;5037992;28;20033;-82
2021/01/02 01:18:02;;;;;;;31.73;19.15;;;;;;;;;;5038125;28;20509;-81
2021/01/02 01:23:37;;;;;;;30.02;17.35;;;;;;;;;;5038377;28;20031;-83
2021/01/02 01:26:18;;;;;;;29.15;16.55;;;;;;;;;;5037995;28;20039;-82
2021/01/02 01:28:46;;;;;;;27.35;16.88;;;;;;;;;;5021077;28;20033;-81
2021/01/02 01:31:16;;;;;;;31.75;16.52;;;;;;;;;;5022323;28;20038;-82
2021/01/02 01:36:47;;;;;;;27.15;15.07;;;;;;;;;;5039541;28;20044;-82
2021/01/02 01:39:13;;;;;;;22.75;14.85;;;;;;;;;;5039390;28;20041;-82
2021/01/02 01:41:41;;;;;;;21.30;13.40;;;;;;;;;;5039288;28;20021;-81
2021/01/02 01:44:10;;;;;;;24.42;15.32;;;;;;;;;;5039578;28;20028;-82
2021/01/02 01:46:42;;;;;;;24.80;15.35;;;;;;;;;;5039221;28;20029;-81
2021/01/02 01:49:10;;;;;;;28.48;16.25;;;;;;;;;;5038998;28;20067;-81
2021/01/02 01:51:36;;;;;;;27.92;15.80;;;;;;;;;;5039471;28;20034;-82
2021/01/02 01:54:11;;;;;;;24.92;14.43;;;;;;;;;;5039494;28;20025;-83
2021/01/02 01:56:50;;;;;;;25.83;15.23;;;;;;;;;;5038355;28;20026;-82
2021/01/02 01:59:16;;;;;;;27.27;15.15;;;;;;;;;;5038179;28;20022;-82
2021/01/02 02:01:45;;;;;;;29.10;15.63;;;;;;;;;;5038657;28;20026;-81
2021/01/02 02:04:11;;;;;;;26.58;16.05;;;;;;;;;;5038760;28;20030;-81
2021/01/02 02:06:38;;;;;;;24.08;15.48;;;;;;;;;;5038498;28;20076;-81
2021/01/02 02:09:04;;;;;;;28.63;17.05;;;;;;;;;;5038901;28;20032;-82
2021/01/02 02:11:32;;;;;;;27.58;16.50;;;;;;;;;;5038640;28;20136;-81
2021/01/02 02:14:15;;;;;;;29.98;16.70;;;;;;;;;;5038750;28;20037;-82
2021/01/02 02:16:52;;;;;;;27.23;16.40;;;;;;;;;;5038581;28;20028;-82
2021/01/02 02:22:26;;;;;;;30.48;16.63;;;;;;;;;;5038753;28;20051;-82
2021/01/02 02:24:52;;;;;;;34.35;18.15;;;;;;;;;;5037338;28;20018;-81
2021/01/02 02:27:24;;;;;;;31.00;17.50;;;;;;;;;;5037363;28;20415;-81
2021/01/02 02:30:05;;;;;;;31.33;18.07;;;;;;;;;;5038247;28;20033;-81
2021/01/02 02:32:34;;;;;;;31.63;17.35;;;;;;;;;;5038274;28;20067;-82
2021/01/02 02:35:02;;;;;;;31.85;17.70;;;;;;;;;;5038399;28;20156;-81
2021/01/02 02:37:28;;;;;;;29.83;17.10;;;;;;;;;;5038117;28;20026;-82
2021/01/02 02:39:54;;;;;;;33.40;18.38;;;;;;;;;;5038185;28;20044;-82
2021/01/02 02:42:22;;;;;;;31.05;17.63;;;;;;;;;;5038392;28;20097;-82
2021/01/02 02:44:51;;;;;;;36.13;17.77;;;;;;;;;;5037936;28;20029;-82
2021/01/02 02:47:21;;;;;;;47.83;22.77;;;;;;;;;;5037847;28;20026;-83
2021/01/02 02:49:48;;;;;;;70.55;30.02;;;;;;;;;;5038105;28;20044;-82
2021/01/02 02:52:27;;;;;;;43.45;21.35;;;;;;;;;;5038112;28;20083;-83
2021/01/02 02:54:53;;;;;;;32.35;18.48;;;;;;;;;;5037985;28;20036;-82
2021/01/02 02:57:21;;;;;;;36.33;18.42;;;;;;;;;;5037992;28;20052;-82
2021/01/02 02:59:47;;;;;;;31.02;18.50;;;;;;;;;;5037828;28;20022;-81
2021/01/02 03:02:14;;;;;;;33.35;18.92;;;;;;;;;;5020211;28;20466;-82
2021/01/02 03:04:40;;;;;;;32.55;19.40;;;;;;;;;;5037706;28;20049;-82
2021/01/02 03:07:06;;;;;;;30.02;18.05;;;;;;;;;;5037564;28;20079;-82
2021/01/02 03:09:33;;;;;;;28.88;17.17;;;;;;;;;;5037717;28;20029;-82
2021/01/02 03:11:59;;;;;;;30.42;17.23;;;;;;;;;;5037318;28;20025;-82
2021/01/02 03:14:26;;;;;;;32.20;17.30;;;;;;;;;;5037761;28;20030;-82
2021/01/02 03:16:56;;;;;;;27.38;17.02;;;;;;;;;;5037753;28;20301;-82
2021/01/02 03:22:25;;;;;;;26.67;15.98;;;;;;;;;;5037593;28;20322;-82
2021/01/02 03:24:51;;;;;;;27.67;16.00;;;;;;;;;;5037717;28;20446;-82
2021/01/02 03:27:17;;;;;;;30.33;16.05;;;;;;;;;;5037379;28;20061;-82
2021/01/02 03:29:43;;;;;;;26.17;15.00;;;;;;;;;;5036268;28;20038;-81
2021/01/02 03:32:09;;;;;;;30.73;16.65;;;;;;;;;;5036199;28;20030;-82
2021/01/02 03:34:38;;;;;;;24.98;15.57;;;;;;;;;;5037393;28;20025;-82
2021/01/02 03:37:04;;;;;;;29.48;15.18;;;;;;;;;;5037231;28;20022;-82
2021/01/02 03:39:30;;;;;;;26.23;15.48;;;;;;;;;;5037050;28;20426;-81
2021/01/02 03:41:56;;;;;;;27.55;15.48;;;;;;;;;;5037193;28;20442;-81
2021/01/02 03:44:23;;;;;;;26.17;15.45;;;;;;;;;;5037299;28;20111;-81
2021/01/02 03:46:49;;;;;;;24.05;14.88;;;;;;;;;;5036034;28;20481;-81
2021/01/02 03:49:15;;;;;;;31.17;20.45;;;;;;;;;;5035794;28;20053;-81
2021/01/02 03:51:41;;;;;;;50.03;35.65;;;;;;;;;;5037000;28;20018;-81
2021/01/02 03:54:07;;;;;;;34.03;23.27;;;;;;;;;;5037321;28;20030;-82
2021/01/02 03:56:33;;;;;;;34.13;24.23;;;;;;;;;;5036935;28;20060;-81
2021/01/02 03:58:59;;;;;;;32.35;21.90;;;;;;;;;;5035817;28;20021;-81
2021/01/02 04:01:25;;;;;;;32.78;21.73;;;;;;;;;;5035675;28;20032;-81
2021/01/02 04:03:51;;;;;;;29.75;17.10;;;;;;;;;;5037000;28;20026;-80
2021/01/02 04:06:26;;;;;;;31.63;17.67;;;;;;;;;;5036537;28;20026;-80
2021/01/02 04:08:52;;;;;;;28.92;17.38;;;;;;;;;;5036814;28;20025;-81
2021/01/02 04:11:18;;;;;;;36.70;22.15;;;;;;;;;;5037009;28;20034;-80
2021/01/02 04:13:44;;;;;;;25.35;15.07;;;;;;;;;;5036894;28;20060;-81
2021/01/02 04:16:10;;;;;;;27.83;16.17;;;;;;;;;;5036812;28;20104;-80
2021/01/02 04:18:37;;;;;;;191.07;62.15;;;;;;;;;;5036758;28;20018;-80
2021/01/02 04:21:03;;;;;;;280.33;79.32;;;;;;;;;;5036643;28;20100;-81
2021/01/02 04:23:29;;;;;;;153.77;59.30;;;;;;;;;;5039001;28;20021;-82
2021/01/02 04:25:55;;;;;;;99.70;45.33;;;;;;;;;;5040745;28;20029;-82
2021/01/02 04:28:21;;;;;;;73.43;36.78;;;;;;;;;;5040643;28;20030;-81
2021/01/02 04:30:47;;;;;;;38.42;20.27;;;;;;;;;;5039268;28;20034;-82
2021/01/02 04:33:13;;;;;;;46.97;24.30;;;;;;;;;;5040555;28;20033;-82
2021/01/02 04:35:57;;;;;;;63.83;36.53;;;;;;;;;;5040369;28;20024;-82
2021/01/02 04:38:23;;;;;;;27.48;17.55;;;;;;;;;;5040854;28;20032;-82
2021/01/02 04:40:54;;;;;;;25.30;14.27;;;;;;;;;;5040806;28;20017;-82
2021/01/02 04:43:20;;;;;;;21.65;12.90;;;;;;;;;;5039430;28;20415;-82
2021/01/02 04:45:47;;;;;;;20.65;12.38;;;;;;;;;;5040163;28;20354;-82
2021/01/02 04:48:13;;;;;;;24.55;13.60;;;;;;;;;;5039409;28;20091;-82
2021/01/02 04:50:39;;;;;;;22.98;12.70;;;;;;;;;;5040345;28;20308;-82
2021/01/02 04:53:05;;;;;;;18.83;11.02;;;;;;;;;;5040403;28;20112;-83
2021/01/02 04:55:33;;;;;;;18.92;11.30;;;;;;;;;;5039977;28;20036;-82
2021/01/02 04:57:59;;;;;;;20.05;12.68;;;;;;;;;;5040307;28;20057;-82
2021/01/02 05:00:26;;;;;;;21.48;12.85;;;;;;;;;;5039089;28;20021;-81
2021/01/02 05:02:53;;;;;;;20.75;12.60;;;;;;;;;;5039879;28;20431;-82
2021/01/02 05:05:37;;;;;;;20.20;11.73;;;;;;;;;;5039915;28;20017;-82
2021/01/02 05:08:04;;;;;;;22.10;12.55;;;;;;;;;;5038847;28;20053;-81
2021/01/02 05:10:30;;;;;;;22.88;12.95;;;;;;;;;;5039870;28;20026;-82
2021/01/02 05:13:09;;;;;;;21.30;13.88;;;;;;;;;;5039852;28;20021;-82
2021/01/02 05:15:35;;;;;;;24.10;13.00;;;;;;;;;;5040048;28;20022;-82
2021/01/02 05:18:01;;;;;;;23.85;13.00;;;;;;;;;;5038711;28;20042;-82
2021/01/02 05:20:27;;;;;;;22.30;12.27;;;;;;;;;;5038700;28;20025;-82
2021/01/02 05:22:53;;;;;;;22.83;13.18;;;;;;;;;;5039621;28;20062;-82
2021/01/02 05:25:21;;;;;;;24.85;13.45;;;;;;;;;;5038608;28;20040;-82
2021/01/02 05:27:48;;;;;;;24.98;14.32;;;;;;;;;;5039701;28;20029;-82
2021/01/02 05:30:20;;;;;;;22.88;14.23;;;;;;;;;;5039614;28;20108;-81
2021/01/02 05:33:02;;;;;;;31.77;17.45;;;;;;;;;;5039474;28;20033;-82
2021/01/02 05:35:34;;;;;;;35.97;18.50;;;;;;;;;;5039267;28;20033;-81
2021/01/02 05:38:13;;;;;;;29.75;16.85;;;;;;;;;;5039577;28;20109;-82
2021/01/02 05:40:51;;;;;;;35.55;17.30;;;;;;;;;;5039611;28;20022;-82
2021/01/02 05:43:19;;;;;;;32.63;16.27;;;;;;;;;;5039262;28;20021;-82
2021/01/02 05:45:45;;;;;;;26.58;15.02;;;;;;;;;;5039230;28;20029;-82
2021/01/02 05:48:12;;;;;;;27.00;15.27;;;;;;;;;;5039349;28;20025;-82
2021/01/02 05:51:06;;;;;;;31.85;16.27;;;;;;;;;;5038852;28;20026;-81
2021/01/02 05:53:33;;;;;;;29.42;16.88;;;;;;;;;;5039141;28;20025;-81
2021/01/02 05:56:05;;;;;;;23.70;14.35;;;;;;;;;;5038878;28;20431;-81
2021/01/02 05:58:32;;;;;;;23.50;13.43;;;;;;;;;;5039195;28;20029;-82
2021/01/02 06:01:08;;;;;;;23.45;13.63;;;;;;;;;;5039084;28;20060;-82
2021/01/02 06:03:35;;;;;;;22.52;12.32;;;;;;;;;;5039003;28;20033;-82
2021/01/02 06:06:03;;;;;;;21.80;13.23;;;;;;;;;;5038879;28;20029;-82
2021/01/02 06:08:34;;;;;;;24.20;12.32;;;;;;;;;;5038825;28;20053;-82
2021/01/02 06:11:03;;;;;;;24.38;13.32;;;;;;;;;;5038977;28;20029;-82
2021/01/02 06:13:30;;;;;;;26.13;13.55;;;;;;;;;;5039058;28;20350;-82
2021/01/02 06:15:57;;;;;;;23.92;13.82;;;;;;;;;;5038477;28;20064;-82
2021/01/02 06:18:23;;;;;;;23.48;13.05;;;;;;;;;;5038562;28;20025;-82
2021/01/02 06:20:50;;;;;;;32.08;16.65;;;;;;;;;;5045271;28;20033;-81
2021/01/02 06:23:18;;;;;;;143.27;63.97;;;;;;;;;;5058435;28;20410;-82
2021/01/02 06:25:44;;;;;;;105.97;51.60;;;;;;;;;;5056350;28;20029;-81
2021/01/02 06:28:10;;;;;;;71.47;40.63;;;;;;;;;;5045117;28;20026;-82
2021/01/02 06:30:36;;;;;;;42.28;25.70;;;;;;;;;;5038490;28;20096;-81
2021/01/02 06:33:02;;;;;;;40.70;23.17;;;;;;;;;;5038231;28;20033;-81
2021/01/02 06:35:28;;;;;;;33.17;21.38;;;;;;;;;;5038297;28;20065;-82
2021/01/02 06:37:57;;;;;;;36.45;22.92;;;;;;;;;;5037364;28;20368;-82
2021/01/02 06:40:33;;;;;;;35.40;21.98;;;;;;;;;;5038475;28;20021;-82
2021/01/02 06:43:03;;;;;;;33.40;20.65;;;;;;;;;;5038259;28;20056;-82
2021/01/02 06:45:50;;;;;;;35.95;17.55;;;;;;;;;;5037558;28;20083;-82
2021/01/02 06:48:25;;;;;;;42.72;17.23;;;;;;;;;;5038021;28;20037;-83
2021/01/02 06:50:51;;;;;;;40.90;17.55;;;;;;;;;;5037274;28;20034;-83
2021/01/02 06:53:21;;;;;;;33.83;16.55;;;;;;;;;;5037263;28;20032;-83
2021/01/02 06:55:58;;;;;;;28.35;15.50;;;;;;;;;;5038000;28;20060;-83
2021/01/02 06:58:24;;;;;;;26.38;14.68;;;;;;;;;;5037806;28;20034;-81
2021/01/02 07:00:50;;;;;;;26.55;15.15;;;;;;;;;;5036501;28;20372;-81
2021/01/02 07:03:35;;;;;;;24.20;13.30;;;;;;;;;;5036916;28;20375;-81
2021/01/02 07:06:01;;;;;;;22.98;13.38;;;;;;;;;;5037652;28;20407;-82
2021/01/02 07:08:40;;;;;;;24.48;12.38;;;;;;;;;;5036820;28;20096;-81
2021/01/02 07:11:25;;;;;;;45.30;19.15;;;;;;;;;;5037384;28;20026;-82
2021/01/02 07:14:12;;;;;;;75.80;32.28;;;;;;;;;;5037883;28;20018;-82
2021/01/02 07:16:53;;;;;;;58.42;31.73;;;;;;;;;;5037366;28;20029;-82
2021/01/02 07:19:22;;;;;;;43.63;26.75;;;;;;;;;;5037506;28;20025;-81
2021/01/02 07:21:56;;;;;;;27.45;17.45;;;;;;;;;;5037474;28;20036;-82
2021/01/02 07:24:32;;;;;;;26.73;15.52;;;;;;;;;;5037716;28;20096;-83
2021/01/02 07:27:02;;;;;;;30.38;16.27;;;;;;;;;;5036477;28;20030;-83
2021/01/02 07:29:29;;;;;;;41.38;21.25;;;;;;;;;;5037836;28;20114;-82
2021/01/02 07:32:05;;;;;;;68.47;28.17;;;;;;;;;;5037160;28;20037;-82
2021/01/02 07:34:31;;;;;;;73.38;28.80;;;;;;;;;;5036391;28;20439;-82
2021/01/02 07:40:06;;;;;;;58.55;26.33;;;;;;;;;;5037196;28;20024;-80
2021/01/02 07:42:33;;;;;;;52.47;22.85;;;;;;;;;;5037724;28;20018;-82
2021/01/02 07:44:59;;;;;;;108.78;51.40;;;;;;;;;;5037266;28;20084;-81
2021/01/02 07:47:25;;;;;;;63.58;27.55;;;;;;;;;;5036309;28;20061;-82
2021/01/02 07:49:58;;;;;;;72.03;29.23;;;;;;;;;;5037015;28;20021;-81
2021/01/02 07:52:25;;;;;;;62.08;27.67;;;;;;;;;;5036967;28;20029;-81
2021/01/02 07:54:51;;;;;;;47.20;19.08;;;;;;;;;;5042069;28;20048;-81
2021/01/02 07:57:22;;;;;;;45.03;18.52;;;;;;;;;;5036301;28;20061;-81
2021/01/02 07:59:48;;;;;;;46.28;20.20;;;;;;;;;;5040962;28;20037;-81
2021/01/02 08:02:19;;;;;;;58.03;25.67;;;;;;;;;;5040213;28;20041;-81
2021/01/02 08:04:46;;;;;;;51.65;23.67;;;;;;;;;;5041219;28;20013;-80
2021/01/02 08:07:12;;;;;;;48.83;22.08;;;;;;;;;;5040907;28;20054;-80
2021/01/02 08:09:42;;;;;;;53.88;22.13;;;;;;;;;;5040925;28;20029;-80
2021/01/02 08:12:09;;;;;;;50.38;21.30;;;;;;;;;;5040798;28;20051;-81
2021/01/02 08:14:36;;;;;;;55.25;21.42;;;;;;;;;;5040860;28;20057;-81
2021/01/02 08:17:05;;;;;;;84.57;33.35;;;;;;;;;;5040594;28;20037;-81
2021/01/02 08:19:31;;;;;;;41.42;17.65;;;;;;;;;;5040927;28;20021;-81
2021/01/02 08:21:58;;;;;;;46.63;19.48;;;;;;;;;;5039897;28;20029;-81
2021/01/02 08:24:24;;;;;;;42.72;17.38;;;;;;;;;;5040715;28;20026;-81
2021/01/02 08:26:50;;;;;;;49.28;20.67;;;;;;;;;;5040696;28;20030;-82
2021/01/02 08:29:16;;;;;;;45.50;18.80;;;;;;;;;;5040723;28;20027;-82
2021/01/02 08:31:50;;;;;;;35.83;16.23;;;;;;;;;;5039491;28;20034;-81
2021/01/02 08:34:18;;;;;;;48.67;19.98;;;;;;;;;;5040754;28;20030;-81
2021/01/02 08:36:44;;;;;;;39.85;18.15;;;;;;;;;;5040236;28;20030;-81
2021/01/02 08:39:10;;;;;;;32.15;15.63;;;;;;;;;;5041114;28;20320;-81
2021/01/02 08:41:37;;;;;;;23.90;12.77;;;;;;;;;;5040753;28;20040;-81
2021/01/02 08:44:03;;;;;;;27.10;13.63;;;;;;;;;;5040503;28;20064;-81
2021/01/02 08:46:30;;;;;;;37.97;17.20;;;;;;;;;;5040688;28;20117;-81
2021/01/02 08:48:56;;;;;;;35.38;17.27;;;;;;;;;;5040276;28;20030;-81
2021/01/02 08:51:23;;;;;;;38.53;17.70;;;;;;;;;;5039790;28;20068;-81
2021/01/02 08:53:49;;;;;;;25.80;12.32;;;;;;;;;;5039395;28;20034;-80
2021/01/02 08:56:24;;;;;;;23.85;11.90;;;;;;;;;;5039117;28;20041;-80
2021/01/02 08:58:52;;;;;;;23.80;10.15;;;;;;;;;;5040187;28;20056;-82
2021/01/02 09:01:18;;;;;;;18.70;8.88;;;;;;;;;;5042382;28;20024;-81
2021/01/02 09:03:44;;;;;;;17.65;9.68;;;;;;;;;;5048612;28;20053;-81
2021/01/02 09:06:17;;;;;;;19.48;10.73;;;;;;;;;;5039782;28;20057;-81
2021/01/02 09:08:43;;;;;;;16.50;8.15;;;;;;;;;;5039667;28;20057;-81
2021/01/02 09:11:10;;;;;;;17.77;8.90;;;;;;;;;;5039704;28;20030;-81
2021/01/02 09:13:36;;;;;;;17.67;9.38;;;;;;;;;;5042995;28;20040;-82
2021/01/02 09:16:06;;;;;;;19.77;9.30;;;;;;;;;;5056803;28;20098;-81
2021/01/02 09:18:32;;;;;;;17.55;9.85;;;;;;;;;;5059700;28;20021;-81
2021/01/02 09:21:31;;;;;;;20.55;10.10;;;;;;;;;;5059525;28;20031;-82
2021/01/02 09:23:57;;;;;;;17.33;8.80;;;;;;;;;;5040608;28;20071;-81
2021/01/02 09:26:28;;;;;;;15.95;8.52;;;;;;;;;;5040685;28;20423;-81
2021/01/02 09:28:56;;;;;;;20.70;10.50;;;;;;;;;;5057658;28;20108;-81
2021/01/02 09:31:22;;;;;;;18.45;9.13;;;;;;;;;;5057750;28;20308;-81
2021/01/02 09:33:49;;;;;;;20.80;9.00;;;;;;;;;;5057359;28;20147;-81
2021/01/02 09:36:15;;;;;;;16.10;8.23;;;;;;;;;;5057316;28;20029;-79
2021/01/02 09:38:42;;;;;;;18.98;9.25;;;;;;;;;;5057511;28;20407;-80
2021/01/02 09:41:09;;;;;;;21.75;10.43;;;;;;;;;;5057413;28;20028;-81
2021/01/02 09:43:35;;;;;;;22.48;10.32;;;;;;;;;;5057406;28;20415;-81
2021/01/02 09:46:01;;;;;;;16.83;8.48;;;;;;;;;;5057096;28;20036;-81
2021/01/02 09:48:27;;;;;;;20.17;9.90;;;;;;;;;;5057275;28;20470;-81
2021/01/02 09:50:53;;;;;;;15.85;8.88;;;;;;;;;;5057160;28;20036;-81
2021/01/02 09:53:19;;;;;;;24.83;10.38;;;;;;;;;;5040394;28;20120;-80
2021/01/02 09:55:45;;;;;;;24.48;10.05;;;;;;;;;;5057062;28;20055;-80
2021/01/02 09:58:12;;;;;;;16.75;8.35;;;;;;;;;;5057194;28;20033;-80
2021/01/02 10:00:38;;;;;;;24.20;9.73;;;;;;;;;;5057563;28;20148;-80
2021/01/02 10:03:06;;;;;;;24.77;9.70;;;;;;;;;;5059045;28;20025;-80
2021/01/02 10:05:33;;;;;;;15.90;8.48;;;;;;;;;;5058658;28;20039;-79
2021/01/02 10:07:59;;;;;;;23.10;10.05;;;;;;;;;;5058419;28;20053;-78
2021/01/02 10:10:25;;;;;;;24.33;10.35;;;;;;;;;;5058486;28;20025;-78
2021/01/02 10:12:51;;;;;;;19.98;9.73;;;;;;;;;;5057574;28;20382;-80
2021/01/02 10:15:18;;;;;;;22.98;10.18;;;;;;;;;;5058830;28;20115;-82
2021/01/02 10:17:44;;;;;;;24.83;10.98;;;;;;;;;;5058863;28;20032;-85
2021/01/02 10:20:11;;;;;;;22.10;9.45;;;;;;;;;;5057332;28;20021;-88
2021/01/02 10:28:44;;;;;;;38.58;19.17;;;;;;;;;;5059211;28;20032;-88
2021/01/02 10:31:10;;;;;;;50.15;35.17;;;;;;;;;;5057941;28;20033;-87
2021/01/02 10:33:36;;;;;;;33.95;24.77;;;;;;;;;;5059040;28;20120;-87
2021/01/02 10:36:02;;;;;;;26.75;14.55;;;;;;;;;;5059067;28;20037;-87
2021/01/02 10:38:28;;;;;;;22.27;11.70;;;;;;;;;;5057928;28;20116;-89
2021/01/02 10:40:54;;;;;;;59.17;38.00;;;;;;;;;;5057899;28;20033;-88
2021/01/02 10:43:20;;;;;;;59.30;31.95;;;;;;;;;;5058450;28;20021;-88
2021/01/02 10:45:47;;;;;;;70.68;35.55;;;;;;;;;;5058525;28;20032;-88
2021/01/02 10:48:13;;;;;;;216.82;76.53;;;;;;;;;;5058708;28;20020;-91
2021/01/02 10:50:48;;;;;;;161.13;58.78;;;;;;;;;;5058679;28;20031;-90
2021/01/02 10:53:14;;;;;;;247.00;84.22;;;;;;;;;;5058424;28;20474;-89
2021/01/02 10:55:41;;;;;;;303.58;99.82;;;;;;;;;;5058349;28;20021;-89
2021/01/02 10:58:07;;;;;;;63.60;23.25;;;;;;;;;;5057368;28;20043;-89
2021/01/02 11:00:33;;;;;;;115.70;42.10;;;;;;;;;;5058377;28;20029;-89
2021/01/02 11:02:59;;;;;;;88.95;30.65;;;;;;;;;;5058646;28;20120;-89
2021/01/02 11:05:25;;;;;;;190.48;63.72;;;;;;;;;;5058626;28;20017;-89
2021/01/02 11:07:51;;;;;;;109.55;37.72;;;;;;;;;;5057165;28;20087;-89
2021/01/02 11:10:18;;;;;;;55.65;21.85;;;;;;;;;;5057621;28;20064;-93
2021/01/02 11:12:44;;;;;;;212.57;70.60;;;;;;;;;;5058307;28;20033;-90
2021/01/02 11:15:11;;;;;;;142.07;47.85;;;;;;;;;;5056361;28;20025;-91
2021/01/02 11:17:39;;;;;;;522.15;195.02;;;;;;;;;;5049691;28;20071;-91
2021/01/02 11:20:06;;;;;;;257.02;88.50;;;;;;;;;;5036981;28;20018;-90
2021/01/02 11:22:32;;;;;;;73.00;26.25;;;;;;;;;;5038042;28;20116;-89
2021/01/02 11:24:58;;;;;;;182.32;53.38;;;;;;;;;;5038137;28;20033;-89
2021/01/02 11:27:24;;;;;;;231.60;58.80;;;;;;;;;;5037776;28;20025;-87
2021/01/02 11:29:50;;;;;;;553.63;145.57;;;;;;;;;;5038003;28;20056;-88
2021/01/02 11:32:16;;;;;;;478.92;146.68;;;;;;;;;;5036924;28;20041;-92
2021/01/02 11:34:42;;;;;;;661.88;211.30;;;;;;;;;;5038185;28;20044;-88
2021/01/02 11:37:10;;;;;;;182.85;47.30;;;;;;;;;;5045437;28;20031;-88
2021/01/02 11:39:36;;;;;;;139.13;39.88;;;;;;;;;;5057800;28;20029;-87
2021/01/02 11:42:04;;;;;;;113.53;36.28;;;;;;;;;;5058072;28;20025;-88
2021/01/02 11:44:31;;;;;;;133.88;40.60;;;;;;;;;;5057647;28;20021;-89
2021/01/02 11:46:58;;;;;;;97.13;32.97;;;;;;;;;;5057415;28;20072;-87
2021/01/02 11:49:26;;;;;;;79.75;27.20;;;;;;;;;;5057027;28;20028;-79
2021/01/02 11:51:56;;;;;;;139.27;41.28;;;;;;;;;;5056818;28;20079;-80
2021/01/02 11:54:22;;;;;;;69.28;23.15;;;;;;;;;;5056785;28;20354;-80
2021/01/02 11:56:48;;;;;;;84.13;28.23;;;;;;;;;;5056614;28;20025;-80
2021/01/02 11:59:15;;;;;;;96.93;34.00;;;;;;;;;;5055836;28;20021;-81
2021/01/02 12:01:44;;;;;;;799.15;327.80;;;;;;;;;;5056995;28;20032;-80
2021/01/02 12:04:11;;;;;;;355.40;135.77;;;;;;;;;;5056858;28;20025;-80
2021/01/02 12:06:38;;;;;;;157.82;52.47;;;;;;;;;;5056719;28;20140;-80
2021/01/02 12:09:04;;;;;;;57.40;22.63;;;;;;;;;;5056763;28;20116;-80
2021/01/02 12:11:35;;;;;;;124.60;44.33;;;;;;;;;;5056720;28;20370;-80
2021/01/02 12:14:02;;;;;;;105.63;39.80;;;;;;;;;;5056968;28;20021;-80
2021/01/02 12:16:31;;;;;;;70.15;27.48;;;;;;;;;;5044720;28;20033;-80
2021/01/02 12:18:57;;;;;;;99.68;40.17;;;;;;;;;;5043124;28;20052;-80
2021/01/02 12:21:23;;;;;;;160.07;64.78;;;;;;;;;;5036613;28;20036;-80
2021/01/02 12:23:49;;;;;;;842.53;410.38;;;;;;;;;;5040767;28;20064;-80
2021/01/02 12:26:15;;;;;;;89.30;37.90;;;;;;;;;;5056828;28;20025;-80
2021/01/02 12:28:44;;;;;;;195.50;82.95;;;;;;;;;;5057207;28;20022;-80
2021/01/02 12:31:13;;;;;;;312.85;135.63;;;;;;;;;;5056463;28;20029;-80
2021/01/02 12:33:39;;;;;;;576.40;287.00;;;;;;;;;;5056787;28;20060;-80
2021/01/02 12:36:05;;;;;;;236.10;106.65;;;;;;;;;;5053785;28;20067;-80
2021/01/02 12:38:31;;;;;;;393.70;166.32;;;;;;;;;;5044334;28;20032;-80
2021/01/02 12:40:57;;;;;;;212.48;78.55;;;;;;;;;;5036910;28;20031;-83
2021/01/02 12:43:23;;;;;;;479.02;195.43;;;;;;;;;;5035926;28;20032;-85
2021/01/02 12:45:49;;;;;;;87.32;33.42;;;;;;;;;;5039535;28;20029;-80
2021/01/02 12:48:15;;;;;;;123.95;44.88;;;;;;;;;;5040427;28;20029;-81
2021/01/02 12:50:42;;;;;;;110.10;39.28;;;;;;;;;;5040127;28;20033;-80
2021/01/02 12:53:08;;;;;;;375.98;127.95;;;;;;;;;;5040332;28;20072;-81
2021/01/02 12:55:34;;;;;;;397.00;151.82;;;;;;;;;;5039878;28;20160;-80
2021/01/02 12:58:00;;;;;;;196.90;64.38;;;;;;;;;;5040245;28;20033;-81
2021/01/02 13:00:26;;;;;;;141.10;51.03;;;;;;;;;;5042302;28;20025;-80
2021/01/02 13:02:52;;;;;;;48.13;19.92;;;;;;;;;;5057259;28;20029;-80
2021/01/02 13:05:20;;;;;;;180.57;72.82;;;;;;;;;;5052725;28;20033;-81
2021/01/02 13:07:46;;;;;;;136.82;55.65;;;;;;;;;;5058589;28;20049;-81
2021/01/02 13:10:12;;;;;;;118.40;46.00;;;;;;;;;;5059900;28;20123;-81
2021/01/02 13:12:38;;;;;;;68.60;29.23;;;;;;;;;;5059729;28;20021;-80
2021/01/02 13:15:05;;;;;;;71.97;30.13;;;;;;;;;;5059745;28;20033;-80
2021/01/02 13:17:31;;;;;;;155.75;58.17;;;;;;;;;;5059567;28;20052;-80
2021/01/02 13:19:57;;;;;;;40.17;19.60;;;;;;;;;;5059860;28;20025;-80
2021/01/02 13:22:23;;;;;;;75.55;30.63;;;;;;;;;;5058460;28;20032;-80
2021/01/02 13:24:49;;;;;;;431.52;167.07;;;;;;;;;;5059422;28;20120;-80
2021/01/02 13:27:17;;;;;;;90.60;33.63;;;;;;;;;;5059410;28;20021;-80
2021/01/02 13:29:49;;;;;;;118.65;47.42;;;;;;;;;;5059259;28;20033;-80
2021/01/02 13:32:16;;;;;;;77.97;31.60;;;;;;;;;;5059417;28;20044;-80
2021/01/02 13:34:42;;;;;;;244.23;86.07;;;;;;;;;;5059346;28;20399;-80
2021/01/02 13:37:09;;;;;;;247.30;94.82;;;;;;;;;;5059248;28;20024;-80
2021/01/02 13:39:35;;;;;;;221.48;76.22;;;;;;;;;;5059074;28;20139;-80
2021/01/02 13:42:02;;;;;;;154.05;53.70;;;;;;;;;;5059142;28;20396;-80
2021/01/02 13:44:28;;;;;;;250.88;85.47;;;;;;;;;;5059348;28;20059;-80
2021/01/02 13:47:01;;;;;;;474.67;173.00;;;;;;;;;;5059162;28;20047;-80
2021/01/02 13:49:27;;;;;;;425.98;149.35;;;;;;;;;;5059242;28;20025;-82
2021/01/02 13:51:54;;;;;;;339.55;119.10;;;;;;;;;;5059309;28;20075;-82
2021/01/02 13:54:20;;;;;;;198.00;71.72;;;;;;;;;;5057844;28;20035;-82
2021/01/02 13:56:47;;;;;;;204.48;74.60;;;;;;;;;;5057962;28;20064;-82
2021/01/02 13:59:15;;;;;;;399.70;150.23;;;;;;;;;;5057792;28;20021;-82
2021/01/02 14:01:41;;;;;;;298.15;104.38;;;;;;;;;;5058925;28;20060;-82
2021/01/02 14:04:07;;;;;;;307.60;114.55;;;;;;;;;;5056746;28;20028;-82
2021/01/02 14:06:34;;;;;;;273.85;93.53;;;;;;;;;;5058793;28;20519;-82
2021/01/02 14:09:00;;;;;;;1060.80;409.35;;;;;;;;;;5059104;28;20056;-81
2021/01/02 14:11:26;;;;;;;400.77;129.63;;;;;;;;;;5058912;28;20036;-82
2021/01/02 14:13:53;;;;;;;291.02;94.72;;;;;;;;;;5059086;28;20401;-82
2021/01/02 14:16:20;;;;;;;226.63;75.85;;;;;;;;;;5057813;28;20112;-80
2021/01/02 14:18:46;;;;;;;384.95;130.85;;;;;;;;;;5057608;28;20460;-81
2021/01/02 14:21:12;;;;;;;225.30;80.90;;;;;;;;;;5058371;28;20032;-81
2021/01/02 14:23:39;;;;;;;185.15;63.95;;;;;;;;;;5058082;28;20025;-81
2021/01/02 14:26:05;;;;;;;744.03;258.15;;;;;;;;;;5054576;28;20033;-81
2021/01/02 14:28:31;;;;;;;309.83;99.75;;;;;;;;;;5049368;28;20017;-80
2021/01/02 14:30:57;;;;;;;235.48;73.78;;;;;;;;;;5057547;28;20029;-80
2021/01/02 14:33:23;;;;;;;389.88;133.57;;;;;;;;;;5049264;28;20067;-80
2021/01/02 14:35:49;;;;;;;202.63;65.05;;;;;;;;;;5058195;28;20028;-80
2021/01/02 14:38:15;;;;;;;399.15;126.45;;;;;;;;;;5057604;28;20461;-81
2021/01/02 14:40:42;;;;;;;109.82;40.85;;;;;;;;;;5037075;28;20038;-80
2021/01/02 14:43:08;;;;;;;116.40;42.20;;;;;;;;;;5037421;28;20319;-80